createdAt,value
2023-01-19T00:00:15.020Z,4.50
2023-01-19T00:01:25.618Z,4.20
2023-01-19T00:03:43.943Z,4.07
2023-01-19T00:04:52.481Z,3.88
2023-01-19T00:06:07.335Z,4.63
2023-01-19T00:08:35.434Z,4.05
2023-01-19T00:09:45.543Z,4.67
2023-01-19T00:10:57.093Z,3.82
2023-01-19T00:12:07.632Z,3.97
2023-01-19T00:13:17.503Z,4.38
2023-01-19T00:14:26.792Z,4.15
2023-01-19T00:15:36.534Z,4.38
2023-01-19T00:16:45.508Z,4.70
2023-01-19T00:17:55.069Z,5.02
2023-01-19T00:19:04.152Z,4.27
2023-01-19T00:20:13.084Z,4.52
2023-01-19T00:21:22.965Z,4.52
2023-01-19T00:22:31.514Z,4.45
2023-01-19T00:24:57.360Z,4.72
2023-01-19T00:26:09.153Z,5.02
2023-01-19T00:27:18.680Z,4.68
2023-01-19T00:28:29.571Z,4.83
2023-01-19T00:29:38.069Z,4.97
2023-01-19T00:30:46.934Z,4.70
2023-01-19T00:31:55.563Z,4.83
2023-01-19T00:33:04.776Z,4.42
2023-01-19T00:34:14.425Z,3.73
2023-01-19T00:35:23.765Z,4.13
2023-01-19T00:36:34.086Z,3.87
2023-01-19T00:37:45.077Z,4.17
2023-01-19T00:38:54.805Z,3.57
2023-01-19T00:41:22.227Z,3.80
2023-01-19T00:42:40.085Z,4.22
2023-01-19T00:43:48.996Z,4.37
2023-01-19T00:44:59.050Z,4.13
2023-01-19T00:47:22.830Z,3.97
2023-01-19T00:48:31.524Z,4.80
2023-01-19T00:49:40.423Z,4.68
2023-01-19T00:50:49.625Z,3.93
2023-01-19T00:51:59.284Z,4.57
2023-01-19T00:53:09.018Z,4.05
2023-01-19T00:54:18.199Z,3.70
2023-01-19T00:56:46.693Z,4.15
2023-01-19T00:57:57.679Z,4.00
2023-01-19T00:59:06.674Z,4.55
2023-01-19T01:00:22.594Z,4.17
2023-01-19T01:01:45.071Z,4.12
2023-01-19T01:02:44.396Z,3.72
2023-01-19T01:03:54.540Z,4.30
2023-01-19T01:05:05.923Z,4.17
2023-01-19T01:06:16.535Z,4.07
2023-01-19T01:07:25.363Z,4.05
2023-01-19T01:08:35.537Z,3.67
2023-01-19T01:09:45.203Z,4.05
2023-01-19T01:10:55.745Z,5.33
2023-01-19T01:12:04.726Z,3.96
2023-01-19T01:13:22.525Z,4.07
2023-01-19T01:14:27.207Z,3.58
2023-01-19T01:15:37.210Z,3.00
2023-01-19T01:16:46.108Z,3.00
2023-01-19T01:17:55.860Z,3.10
2023-01-19T01:19:05.705Z,2.60
2023-01-19T01:20:19.440Z,2.57
2023-01-19T01:21:30.297Z,3.08
2023-01-19T01:22:40.224Z,3.30
2023-01-19T01:23:49.251Z,3.00
2023-01-19T01:24:59.058Z,2.70
2023-01-19T01:26:09.205Z,2.65
2023-01-19T01:27:18.994Z,2.70
2023-01-19T01:28:27.611Z,3.17
2023-01-19T01:29:37.197Z,2.58
2023-01-19T01:30:46.200Z,2.80
2023-01-19T01:31:55.270Z,2.43
2023-01-19T01:33:03.868Z,3.15
2023-01-19T01:34:13.162Z,2.75
2023-01-19T01:35:21.670Z,2.58
2023-01-19T01:37:48.461Z,2.92
2023-01-19T01:40:16.704Z,3.00
2023-01-19T01:41:27.847Z,3.72
2023-01-19T01:42:37.886Z,4.37
2023-01-19T01:43:55.359Z,4.07
2023-01-19T01:45:18.053Z,3.33
2023-01-19T01:46:34.921Z,3.10
2023-01-19T01:47:48.469Z,2.65
2023-01-19T01:49:01.043Z,3.53
2023-01-19T01:50:18.462Z,3.33
2023-01-19T01:53:06.562Z,3.77
2023-01-19T01:54:25.374Z,3.40
2023-01-19T01:57:04.361Z,4.03
2023-01-19T01:58:16.551Z,3.82
2023-01-19T01:59:28.968Z,3.32
2023-01-19T02:00:59.457Z,3.40
2023-01-19T02:02:33.379Z,3.26
2023-01-19T02:03:44.239Z,4.08
2023-01-19T02:05:00.832Z,3.67
2023-01-19T02:06:12.370Z,3.40
2023-01-19T02:07:55.252Z,3.85
2023-01-19T02:09:27.237Z,4.03
2023-01-19T02:10:54.270Z,3.63
2023-01-19T02:12:22.834Z,4.12
2023-01-19T02:13:35.399Z,4.13
2023-01-19T02:14:44.951Z,3.97
2023-01-19T02:16:01.395Z,3.87
2023-01-19T02:17:11.196Z,4.13
2023-01-19T02:18:22.629Z,3.76
2023-01-19T02:21:20.428Z,3.25
2023-01-19T02:22:38.104Z,2.83
2023-01-19T02:23:51.313Z,3.57
2023-01-19T02:25:03.132Z,2.85
2023-01-19T02:26:31.022Z,2.45
2023-01-19T02:27:41.149Z,2.85
2023-01-19T02:29:02.312Z,6.55
2023-01-19T02:30:13.904Z,4.97
2023-01-19T02:31:25.483Z,3.57
2023-01-19T02:32:34.256Z,3.07
2023-01-19T02:33:43.450Z,2.75
2023-01-19T02:34:52.757Z,2.40
2023-01-19T02:36:04.734Z,2.72
2023-01-19T02:37:16.144Z,2.52
2023-01-19T02:38:27.870Z,3.12
2023-01-19T02:39:42.657Z,2.52
2023-01-19T02:40:54.878Z,2.90
2023-01-19T02:42:10.287Z,3.28
2023-01-19T02:43:19.809Z,2.82
2023-01-19T02:44:31.317Z,2.33
2023-01-19T02:45:41.756Z,2.60
2023-01-19T02:46:54.966Z,2.55
2023-01-19T02:48:05.363Z,2.25
2023-01-19T02:50:41.267Z,2.33
2023-01-19T02:51:50.500Z,2.72
2023-01-19T02:53:03.370Z,2.28
2023-01-19T02:54:33.969Z,2.68
2023-01-19T02:55:46.255Z,2.60
2023-01-19T02:57:02.550Z,2.55
2023-01-19T02:58:40.423Z,2.32
2023-01-19T03:00:14.386Z,2.25
2023-01-19T03:01:54.148Z,1.67
2023-01-19T03:03:28.188Z,1.75
2023-01-19T03:04:59.471Z,1.73
2023-01-19T03:06:15.194Z,1.75
2023-01-19T03:07:44.660Z,1.90
2023-01-19T03:09:02.779Z,2.07
2023-01-19T03:11:36.894Z,1.75
2023-01-19T03:13:11.475Z,2.05
2023-01-19T03:14:24.951Z,1.60
2023-01-19T03:17:00.194Z,1.85
2023-01-19T03:18:12.873Z,1.70
2023-01-19T03:19:27.417Z,1.73
2023-01-19T03:20:38.430Z,2.22
2023-01-19T03:21:51.522Z,1.92
2023-01-19T03:23:04.744Z,2.40
2023-01-19T03:24:15.942Z,2.15
2023-01-19T03:25:26.080Z,2.45
2023-01-19T03:26:45.302Z,2.32
2023-01-19T03:27:58.128Z,2.00
2023-01-19T03:29:10.741Z,1.90
2023-01-19T03:30:24.160Z,1.57
2023-01-19T03:31:34.218Z,2.28
2023-01-19T03:34:13.632Z,2.02
2023-01-19T03:35:26.548Z,2.07
2023-01-19T03:36:39.731Z,1.90
2023-01-19T03:37:53.795Z,1.92
2023-01-19T03:39:06.159Z,1.75
2023-01-19T03:40:17.327Z,1.62
2023-01-19T03:41:29.810Z,2.10
2023-01-19T03:42:40.981Z,1.45
2023-01-19T03:43:52.276Z,1.92
2023-01-19T03:45:02.909Z,1.98
2023-01-19T03:47:25.996Z,2.00
2023-01-19T03:48:35.327Z,1.80
2023-01-19T03:51:23.971Z,1.87
2023-01-19T03:52:34.201Z,1.83
2023-01-19T03:53:44.244Z,2.20
2023-01-19T03:54:53.276Z,1.90
2023-01-19T03:56:03.025Z,1.70
2023-01-19T03:57:12.734Z,2.75
2023-01-19T03:58:22.278Z,3.35
2023-01-19T04:00:47.581Z,2.58
2023-01-19T04:01:56.267Z,2.33
2023-01-19T04:03:07.388Z,2.18
2023-01-19T07:56:58.045Z,9.64
2023-01-19T07:58:07.437Z,7.95
2023-01-19T07:59:17.081Z,3.58
2023-01-19T08:00:26.400Z,3.93
2023-01-19T08:01:36.252Z,3.50
2023-01-19T08:02:45.481Z,3.90
2023-01-19T08:03:54.136Z,4.10
2023-01-19T08:05:03.285Z,3.48
2023-01-19T08:07:42.081Z,3.73
2023-01-19T08:08:50.897Z,3.72
2023-01-19T08:09:59.503Z,3.53
2023-01-19T08:11:09.073Z,3.22
2023-01-19T08:12:18.294Z,4.23
2023-01-19T08:14:42.627Z,2.95
2023-01-19T08:15:53.267Z,3.42
2023-01-19T08:17:03.182Z,2.50
2023-01-19T08:18:13.606Z,2.27
2023-01-19T08:19:22.546Z,2.40
2023-01-19T08:20:32.629Z,2.34
2023-01-19T08:21:41.705Z,1.65
2023-01-19T08:22:50.889Z,1.80
2023-01-19T08:24:01.005Z,1.70
2023-01-19T08:25:10.790Z,1.35
2023-01-19T08:26:24.456Z,1.62
2023-01-19T08:27:33.910Z,1.28
2023-01-19T08:28:42.587Z,1.60
2023-01-19T08:29:54.353Z,1.62
2023-01-19T08:31:18.997Z,1.55
2023-01-19T08:32:15.179Z,1.47
2023-01-19T08:33:24.887Z,1.87
2023-01-19T08:35:51.987Z,2.20
2023-01-19T08:37:01.902Z,2.15
2023-01-19T08:38:11.757Z,2.62
2023-01-19T08:39:22.484Z,2.78
2023-01-19T08:40:36.163Z,3.27
2023-01-19T08:41:45.724Z,3.00
2023-01-19T08:43:04.405Z,3.85
2023-01-19T08:44:13.526Z,5.43
2023-01-19T08:45:24.141Z,5.47
2023-01-19T08:46:33.269Z,5.77
2023-01-19T08:48:58.272Z,5.80
2023-01-19T08:50:11.123Z,8.12
2023-01-19T08:51:21.012Z,9.05
2023-01-19T08:52:31.301Z,8.75
2023-01-19T08:53:41.526Z,7.25
2023-01-19T08:54:50.049Z,6.85
2023-01-19T08:56:04.970Z,7.63
2023-01-19T08:57:15.558Z,6.42
2023-01-19T08:58:24.170Z,7.65
2023-01-19T08:59:33.151Z,7.03
2023-01-19T09:00:42.711Z,7.35
2023-01-19T09:03:09.023Z,7.40
2023-01-19T09:04:17.971Z,7.35
2023-01-19T09:05:27.747Z,7.95
2023-01-19T09:06:36.880Z,7.90
2023-01-19T10:24:06.082Z,16.92
2023-01-19T10:25:18.516Z,10.93
2023-01-19T10:26:36.369Z,8.28
2023-01-19T10:27:47.070Z,7.97
2023-01-19T10:30:27.191Z,7.33
2023-01-19T10:31:39.984Z,7.20
2023-01-19T10:32:50.119Z,6.27
2023-01-19T10:34:00.305Z,7.50
2023-01-19T10:35:20.817Z,6.27
2023-01-19T10:36:36.398Z,6.80
2023-01-19T10:37:46.487Z,6.10
2023-01-19T10:38:57.722Z,6.10
2023-01-19T10:40:13.820Z,6.75
2023-01-19T10:42:49.518Z,6.32
2023-01-19T10:45:23.552Z,7.05
2023-01-19T10:46:38.974Z,7.37
2023-01-19T10:47:49.741Z,6.85
2023-01-19T10:50:31.521Z,7.05
2023-01-19T10:51:48.778Z,6.72
2023-01-19T10:53:06.901Z,7.07
2023-01-19T10:54:16.831Z,7.35
2023-01-19T10:55:35.048Z,6.25
2023-01-19T10:56:47.441Z,7.70
2023-01-19T10:57:58.009Z,7.05
2023-01-19T11:00:37.899Z,7.22
2023-01-19T11:04:45.072Z,6.68
2023-01-19T11:06:17.348Z,7.45
2023-01-19T11:07:33.101Z,6.65
2023-01-19T11:08:48.427Z,6.37
2023-01-19T11:10:20.837Z,7.05
2023-01-19T11:11:35.515Z,6.90
2023-01-19T11:13:06.107Z,6.25
2023-01-19T11:14:21.470Z,6.65
2023-01-19T11:16:57.477Z,6.80
2023-01-19T11:18:06.983Z,6.45
2023-01-19T11:20:53.956Z,6.77
2023-01-19T11:23:40.078Z,6.25
2023-01-19T11:24:50.504Z,6.05
2023-01-19T11:27:21.128Z,6.15
2023-01-19T11:31:19.980Z,6.45
2023-01-19T11:32:28.694Z,6.12
2023-01-19T11:33:50.739Z,6.60
2023-01-19T11:35:00.459Z,6.85
2023-01-19T11:36:19.173Z,7.18
2023-01-19T11:37:33.740Z,6.83
2023-01-19T11:38:44.776Z,6.73
2023-01-19T11:41:19.817Z,6.75
2023-01-19T11:42:32.100Z,6.68
2023-01-19T11:43:49.076Z,6.28
2023-01-19T11:45:08.637Z,6.27
2023-01-19T11:46:18.291Z,6.93
2023-01-19T11:50:27.445Z,7.13
2023-01-19T11:51:45.599Z,6.67
2023-01-19T11:53:00.840Z,6.15
2023-01-19T11:54:24.233Z,6.33
2023-01-19T11:55:39.261Z,6.32
2023-01-19T11:56:51.704Z,5.63
2023-01-19T11:58:03.084Z,5.82
2023-01-19T16:19:29.471Z,20.02
2023-01-19T16:20:39.304Z,13.18
2023-01-19T16:21:48.290Z,10.03
2023-01-19T16:23:09.630Z,9.47
2023-01-19T16:25:23.547Z,8.80
2023-01-19T16:26:34.849Z,9.07
2023-01-19T16:27:44.336Z,8.75
2023-01-19T16:30:20.449Z,7.83
2023-01-19T16:31:30.498Z,7.85
2023-01-19T16:32:39.912Z,21.18
2023-01-19T16:33:49.289Z,9.78
2023-01-19T16:34:58.304Z,8.90
2023-01-19T16:36:34.457Z,7.70
2023-01-19T16:37:44.460Z,7.15
2023-01-19T16:38:55.149Z,7.45
2023-01-19T16:40:05.486Z,8.05
2023-01-19T16:41:15.044Z,7.50
2023-01-19T16:43:38.655Z,7.33
2023-01-19T16:44:47.813Z,7.15
2023-01-19T16:47:19.081Z,6.20
2023-01-19T16:49:43.494Z,6.78
2023-01-19T16:52:16.048Z,8.18
2023-01-19T16:53:24.716Z,7.47
2023-01-19T16:54:34.807Z,13.20
2023-01-19T16:55:43.332Z,8.90
2023-01-19T16:56:54.358Z,8.65
2023-01-19T16:58:02.902Z,7.03
2023-01-19T17:00:30.050Z,7.38
2023-01-19T17:01:39.517Z,7.20
2023-01-19T17:02:48.270Z,7.75
2023-01-19T17:03:57.931Z,8.82
2023-01-19T17:06:24.101Z,6.82
2023-01-19T17:07:34.846Z,7.00
2023-01-19T17:12:32.406Z,6.80
2023-01-19T17:13:41.766Z,6.65
2023-01-19T17:14:50.874Z,8.20
2023-01-19T17:16:02.351Z,6.70
2023-01-19T17:17:10.892Z,6.88
2023-01-19T17:18:19.876Z,7.65
2023-01-19T17:20:44.301Z,8.17
2023-01-19T17:21:53.159Z,9.10
2023-01-19T17:23:01.809Z,7.65
2023-01-19T17:24:10.859Z,8.12
2023-01-19T17:25:19.489Z,7.70
2023-01-19T17:26:30.307Z,8.57
2023-01-19T17:28:48.130Z,6.37
2023-01-19T17:29:56.964Z,7.00
2023-01-19T17:31:08.807Z,7.83
2023-01-19T17:32:19.333Z,8.82
2023-01-19T17:33:29.069Z,6.50
2023-01-19T17:34:38.760Z,6.10
2023-01-19T17:35:49.789Z,7.35
2023-01-19T17:38:16.245Z,7.28
2023-01-19T17:39:24.781Z,7.03
2023-01-19T17:40:34.757Z,6.30
2023-01-19T17:42:59.603Z,7.10
2023-01-19T17:44:10.890Z,6.87
2023-01-19T17:45:20.485Z,6.72
2023-01-19T17:47:50.225Z,7.03
2023-01-19T17:49:01.344Z,6.08
2023-01-19T17:50:11.561Z,6.53
2023-01-19T17:51:25.233Z,6.42
2023-01-19T17:52:36.061Z,7.70
2023-01-19T17:54:54.161Z,5.73
2023-01-19T17:56:08.510Z,6.47
2023-01-19T17:57:17.486Z,5.90
2023-01-19T17:58:27.301Z,6.15
2023-01-19T17:59:37.349Z,5.33
2023-01-19T18:00:47.388Z,4.65
2023-01-19T18:01:56.925Z,5.05
2023-01-19T18:03:05.727Z,5.32
2023-01-19T18:04:15.094Z,5.15
2023-01-19T18:05:25.032Z,4.02
2023-01-19T18:06:33.939Z,5.33
2023-01-19T18:07:42.875Z,5.05
2023-01-19T18:08:53.824Z,4.62
2023-01-19T18:10:04.164Z,5.40
2023-01-19T18:11:15.458Z,4.90
2023-01-19T18:12:25.647Z,4.75
2023-01-19T18:13:35.041Z,4.20
2023-01-19T18:16:22.758Z,5.22
2023-01-19T18:17:32.645Z,4.10
2023-01-19T18:18:43.529Z,5.15
2023-01-19T18:19:54.111Z,4.92
2023-01-19T18:21:06.857Z,5.23
2023-01-19T18:22:15.583Z,4.07
2023-01-19T18:23:26.663Z,4.90
2023-01-19T18:24:35.982Z,6.38
2023-01-19T18:25:45.720Z,4.38
2023-01-19T18:26:55.777Z,4.03
2023-01-19T18:28:05.928Z,5.00
2023-01-19T18:29:16.271Z,4.35
2023-01-19T18:30:26.030Z,5.58
2023-01-19T18:31:34.865Z,5.42
2023-01-19T18:32:43.819Z,5.77
2023-01-19T18:33:52.733Z,5.07
2023-01-19T18:35:01.983Z,4.62
2023-01-19T18:36:11.198Z,4.93
2023-01-19T18:37:19.859Z,5.37
2023-01-19T18:38:29.934Z,4.55
2023-01-19T18:39:40.194Z,4.60
2023-01-19T18:40:49.378Z,4.52
2023-01-19T18:42:00.041Z,5.13
2023-01-19T18:43:10.245Z,4.98
2023-01-19T18:44:19.284Z,5.30
2023-01-19T18:45:28.329Z,5.45
2023-01-19T18:47:56.184Z,5.23
2023-01-19T18:49:05.765Z,5.35
2023-01-19T18:50:17.666Z,5.00
2023-01-19T18:51:26.214Z,5.23
2023-01-19T18:53:49.864Z,4.43
2023-01-19T18:55:00.452Z,4.92
2023-01-19T18:56:11.949Z,5.47
2023-01-19T18:57:21.503Z,4.73
2023-01-19T18:58:31.971Z,5.32
2023-01-19T18:59:44.325Z,5.40
2023-01-19T19:00:52.973Z,4.87
2023-01-19T19:02:03.671Z,5.30
2023-01-19T19:04:21.498Z,4.42
2023-01-19T19:05:30.614Z,4.72
2023-01-19T19:06:39.669Z,5.10
2023-01-19T19:07:48.748Z,5.17
2023-01-19T19:09:00.879Z,5.60
2023-01-19T19:11:27.026Z,4.88
2023-01-19T19:12:36.440Z,5.37
2023-01-19T19:13:45.056Z,6.68
2023-01-19T19:14:53.819Z,5.63
2023-01-19T19:16:07.799Z,4.97
2023-01-19T19:17:17.624Z,4.95
2023-01-19T19:18:26.152Z,4.98
2023-01-19T19:19:34.761Z,7.17
2023-01-19T19:20:44.633Z,5.38
2023-01-19T19:21:53.191Z,5.82
2023-01-19T19:23:02.577Z,5.30
2023-01-19T19:24:12.980Z,5.00
2023-01-19T19:25:22.789Z,5.30
2023-01-19T19:26:35.853Z,5.48
2023-01-19T19:27:46.599Z,6.23
2023-01-19T19:30:06.559Z,5.05
2023-01-19T19:32:35.877Z,5.30
2023-01-19T19:33:44.486Z,5.15
2023-01-19T19:34:59.028Z,5.55
2023-01-19T19:36:10.389Z,4.78
2023-01-19T19:37:22.064Z,4.82
2023-01-19T19:38:32.809Z,4.73
2023-01-19T19:40:50.782Z,4.70
2023-01-19T19:42:01.613Z,4.95
2023-01-19T19:43:11.516Z,5.62
2023-01-19T19:44:20.340Z,4.67
2023-01-19T19:45:29.167Z,5.32
2023-01-19T19:46:40.892Z,5.40
2023-01-19T19:47:51.191Z,4.77
2023-01-19T19:48:59.856Z,5.65
2023-01-19T19:50:11.770Z,4.92
2023-01-19T19:51:28.549Z,4.75
2023-01-19T19:52:42.071Z,5.20
2023-01-19T22:12:26.247Z,11.98
2023-01-19T22:13:38.301Z,7.90
2023-01-19T22:14:47.835Z,7.17
2023-01-19T22:17:19.065Z,5.43
2023-01-19T22:18:28.794Z,4.90
2023-01-19T22:20:52.275Z,5.92
2023-01-19T22:22:01.192Z,5.38
2023-01-19T22:23:10.008Z,5.65
2023-01-19T22:24:19.621Z,5.05
2023-01-19T22:25:29.712Z,6.40
2023-01-19T22:26:39.830Z,4.55
2023-01-19T22:27:49.384Z,5.52
2023-01-19T22:29:01.102Z,5.78
2023-01-19T22:30:11.101Z,5.48
2023-01-19T22:32:35.126Z,5.47
2023-01-19T22:33:45.505Z,5.55
2023-01-19T22:34:54.873Z,4.80
2023-01-19T22:36:13.523Z,5.53
2023-01-19T22:37:22.489Z,5.65
2023-01-19T22:38:32.017Z,5.88
2023-01-19T22:39:41.542Z,5.52
2023-01-19T22:40:50.659Z,5.42
2023-01-19T22:42:02.833Z,5.80
2023-01-19T22:43:11.764Z,5.12
2023-01-19T22:44:22.352Z,7.12
2023-01-19T22:45:33.229Z,5.38
2023-01-19T22:46:44.305Z,5.53
2023-01-19T22:47:52.806Z,5.93
2023-01-19T22:49:02.730Z,5.65
2023-01-19T22:50:12.259Z,6.30
2023-01-19T22:51:23.956Z,6.47
2023-01-19T22:52:33.179Z,5.30
2023-01-19T22:53:43.269Z,6.07
2023-01-19T22:56:18.584Z,6.00
2023-01-19T22:57:28.239Z,5.78
2023-01-19T22:58:39.531Z,5.68
2023-01-19T22:59:48.619Z,6.02
2023-01-19T23:02:16.217Z,5.67
2023-01-19T23:03:25.817Z,6.32
2023-01-19T23:04:35.011Z,6.02
2023-01-19T23:07:18.901Z,5.88
2023-01-19T23:08:28.416Z,5.18
2023-01-19T23:09:37.430Z,5.80
2023-01-19T23:10:47.801Z,5.60
2023-01-19T23:11:56.452Z,5.67
2023-01-19T23:13:05.669Z,5.65
2023-01-19T23:14:19.138Z,7.10
2023-01-19T23:15:28.148Z,5.57
2023-01-19T23:16:38.509Z,6.07
2023-01-19T23:19:04.866Z,6.78
2023-01-19T23:20:14.525Z,7.48
2023-01-19T23:21:25.435Z,5.60
2023-01-19T23:22:33.986Z,5.48
2023-01-19T23:23:44.780Z,5.50
2023-01-19T23:26:09.232Z,5.77
2023-01-19T23:27:18.826Z,6.20
2023-01-19T23:28:27.922Z,5.05
2023-01-19T23:29:36.870Z,5.50
2023-01-19T23:32:03.323Z,5.27
2023-01-19T23:33:12.899Z,6.00
2023-01-19T23:34:22.831Z,5.32
2023-01-19T23:35:35.501Z,6.37
2023-01-19T23:36:45.995Z,6.05
2023-01-19T23:37:55.868Z,6.40
2023-01-19T23:40:28.447Z,5.23
2023-01-19T23:41:37.629Z,5.95
2023-01-19T23:42:47.258Z,5.95
2023-01-19T23:43:56.574Z,6.08
2023-01-19T23:45:07.707Z,5.23
2023-01-19T23:46:18.936Z,5.92
2023-01-19T23:47:29.178Z,5.70
2023-01-19T23:48:38.493Z,5.63
2023-01-19T23:49:48.127Z,6.35
2023-01-19T23:50:57.983Z,5.68
2023-01-19T23:52:07.025Z,5.45
2023-01-19T23:53:16.389Z,5.70
2023-01-19T23:54:26.019Z,6.05
2023-01-19T23:55:35.146Z,5.65
2023-01-19T23:56:44.651Z,6.60
2023-01-19T23:57:54.814Z,6.33
2023-01-19T23:59:10.375Z,5.90
